Flight Track Log - Related Links

Times and Time Zones

All times are in EDT time to prevent confusion due to time zone crossing. See the N180KT flight status page for this flight to view local times or setup timezone preferences in your user account.

Time Position Orientation Groundspeed Altitude Reporting Facility
EDT Latitude Longitude Course Direction KTS MPH feet Rate Location/Type
Fri 05:07:00 PM 34.2833 -80.8811 270° West  Level FlightAware Approximate
Fri 05:08:00 PM 34.2833 -80.9284 270° West  Level FlightAware Approximate
Fri 05:09:00 PM 34.2751 -80.9745 256° West  Level FlightAware Approximate
Fri 05:10:00 PM 34.2651 -81.0201 241° Southwest  Level FlightAware Approximate
Fri 05:11:00 PM 34.2459 -81.0613 241° Southwest  Level FlightAware Approximate
Fri 05:12:00 PM 34.2267 -81.1025 241° Southwest  Level FlightAware Approximate
Fri 05:13:00 PM 34.2075 -81.1437 241° Southwest  Level FlightAware Approximate
Fri 05:14:00 PM 34.1883 -81.1848 241° Southwest  Level FlightAware Approximate
Fri 05:15:00 PM 34.1691 -81.2259 241° Southwest  Level FlightAware Approximate
Fri 05:16:00 PM 34.1498 -81.2670 237° Southwest  Level FlightAware Approximate
Fri 05:17:00 PM 34.1287 -81.3068 237° Southwest  Level FlightAware Approximate
Fri 05:18:00 PM 34.1075 -81.3465 237° Southwest  Level FlightAware Approximate
Fri 05:19:00 PM 34.0864 -81.3862 237° Southwest  Level FlightAware Approximate
Fri 05:20:00 PM 34.0652 -81.4258 237° Southwest  Level FlightAware Approximate
Fri 05:21:00 PM 34.0440 -81.4655 237° Southwest  Level FlightAware Approximate
Fri 05:22:00 PM 34.0229 -81.5051 237° Southwest  Level FlightAware Approximate
Fri 05:23:00 PM 34.0040 -81.5463 243° Southwest  Level FlightAware Approximate
Fri 05:24:00 PM 33.9861 -81.5882 243° Southwest  Level FlightAware Approximate
Fri 05:25:00 PM 33.9681 -81.6301 243° Southwest  Level FlightAware Approximate
Fri 05:26:00 PM 33.9502 -81.6720 243° Southwest  Level FlightAware Approximate
Fri 05:27:00 PM 33.9322 -81.7138 243° Southwest  Level FlightAware Approximate
Fri 05:28:00 PM 33.9341 -81.7619 273° West  Level Estimated
Fri 05:29:00 PM 33.9360 -81.8095 273° West  Level Estimated
Fri 05:30:00 PM 33.9378 -81.8570 273° West  Level Estimated
Fri 05:31:00 PM 33.9397 -81.9046 273° West  Level Estimated
Fri 05:32:00 PM 33.9415 -81.9521 273° West  Level Estimated
Fri 05:33:00 PM 33.9433 -81.9997 273° West  Level Estimated
Fri 05:34:00 PM 33.9450 -82.0472 273° West  Level Estimated
Fri 05:35:00 PM 33.9468 -82.0948 273° West  Level Estimated
Fri 05:36:00 PM 33.9485 -82.1424 273° West  Level Estimated
Fri 05:37:00 PM 33.9502 -82.1899 273° West  Level Estimated
Fri 05:38:00 PM 33.9519 -82.2375 272° West  Level Estimated
Fri 05:39:00 PM 33.9536 -82.2850 272° West  Level Estimated
Fri 05:40:00 PM 33.9553 -82.3326 272° West  Level Estimated
Fri 05:41:00 PM 33.9569 -82.3802 272° West  Level Estimated
Fri 05:42:00 PM 33.9585 -82.4278 272° West  Level Estimated
Fri 05:43:00 PM 33.9602 -82.4753 272° West  Level Estimated
Fri 05:44:00 PM 33.9618 -82.5229 272° West  Level Estimated
Fri 05:45:00 PM 33.9633 -82.5705 272° West  Level Estimated
Fri 05:45:43 PM 34.0333 -82.8333 272° West 153 176 8,000  Level Atlanta TRACON
Fri 05:46:00 PM 33.9649 -82.6181 272° West  Level Estimated
Fri 05:46:43 PM 34.0333 -82.8833 270° West 156 180 8,000  Level Atlanta TRACON
Fri 05:47:00 PM 33.9664 -82.6656 272° West  Level Estimated
Fri 05:47:43 PM 34.0500 -82.9333 292° West 153 176 8,000  Level Atlanta TRACON
Fri 05:48:00 PM 33.9679 -82.7132 272° West  Level Estimated
Fri 05:49:00 PM 33.9694 -82.7608 272° West  Level Estimated
Fri 05:49:00 PM 34.0451 -82.9942 264° West  Level FlightAware Approximate
Fri 05:50:00 PM 33.9709 -82.8084 272° West  Level Estimated
Fri 05:50:43 PM 34.0500 -83.0833 264° West 154 177 8,000  Level Atlanta TRACON
Fri 05:51:43 PM 34.0667 -83.1333 292° West 153 176 8,000 -248 Level Atlanta TRACON
Fri 05:52:44 PM 34.0667 -83.1833 270° West 166 191 7,500 -446 Descending Atlanta TRACON
Fri 05:53:44 PM 34.0667 -83.2500 270° West 168 193 7,100 -400 Descending Atlanta TRACON
Fri 05:54:44 PM 34.0833 -83.3000 292° West 169 194 6,700 -421 Descending Atlanta TRACON
Fri 05:55:38 PM 34.0833 -83.3500 270° West 172 198 6,300 -350 Descending Atlanta TRACON
Fri 05:56:00 PM 34.0179 -83.3262 264° West  Level FlightAware Approximate
Fri 05:56:44 PM 34.0833 -83.4167 270° West 166 191 6,000  Level Atlanta TRACON
Fri 05:57:44 PM 34.1000 -83.4667 292° West 159 183 6,000  Level Atlanta TRACON
Fri 05:58:38 PM 34.1000 -83.5167 270° West 160 184 6,000  Level Atlanta TRACON
Fri 05:59:44 PM 34.1000 -83.5667 270° West 162 186 6,000  Level Atlanta TRACON
Fri 06:00:44 PM 34.1167 -83.6167 292° West 158 182 6,000  Level Atlanta TRACON
Fri 06:01:38 PM 34.1167 -83.6667 270° West 156 180 6,000  Level Atlanta TRACON
Fri 06:02:44 PM 34.1167 -83.7333 270° West 156 180 6,000  Level Atlanta TRACON
Fri 06:03:44 PM 34.1167 -83.7833 270° West 159 183 6,000  Level Atlanta TRACON
Fri 06:04:44 PM 34.1333 -83.8333 292° West 159 183 6,000  Level Atlanta TRACON
Fri 06:05:44 PM 34.1333 -83.8833 270° West 159 183 6,000  Level Atlanta TRACON
Fri 06:06:44 PM 34.1333 -83.9333 270° West 153 176 6,000  Level Atlanta TRACON
Fri 06:07:44 PM 34.1167 -83.9833 248° West 153 176 6,000 -150 Level Atlanta TRACON
Fri 06:08:44 PM 34.1167 -84.0333 270° West 159 183 5,700 -368 Descending Atlanta TRACON
Fri 06:09:38 PM 34.1000 -84.0833 248° West 147 169 5,300 -500 Descending Atlanta TRACON
Fri 06:10:44 PM 34.1000 -84.1333 270° West 153 176 4,700 -484 Descending Atlanta TRACON
Fri 06:12:44 PM 34.0833 -84.2167 256° West 138 159 3,800 -467 Descending Atlanta TRACON
Fri 06:13:44 PM 34.0667 -84.2667 248° West 137 158 3,300 -417 Descending Atlanta TRACON
Fri 06:14:39 PM 34.0667 -84.3000 270° West 135 155 3,000 -157 Descending Atlanta TRACON
Fri 06:15:39 PM 34.0500 -84.3500 248° West 137 158 3,000  Level Atlanta TRACON
Fri 06:16:33 PM 34.0500 -84.3833 270° West 132 152 3,000  Level Atlanta TRACON
Fri 06:17:39 PM 34.0333 -84.4333 248° West 126 145 3,000 -95 Level Atlanta TRACON
Fri 06:18:39 PM 34.0167 -84.4667 239° Southwest 132 152 2,800 -316 Descending Atlanta TRACON
Fri 06:19:33 PM 34.0167 -84.5000 270° West 126 145 2,400 -526 Descending Atlanta TRACON
Fri 06:20:33 PM 34.0167 -84.5333 270° West 101 116 1,800 -600 Descending Atlanta TRACON
Fri 06:22:00 PM 34.0000 -84.5833 257° West  Level FlightAware Approximate

Login

Don't have an account? Register now (free) for customized features, flight alerts, and more!